Time;durP1;ratioP1;P1;durP2;ratioP2;P2;SDS_P1;SDS_P2;PMS_P1;PMS_P2;Temp;Humidity;BMP_temperature;BMP_pressure;BME280_temperature;BME280_humidity;BME280_pressure;Samples;Min_cycle;Max_cycle;Signal;HPM_P1;HPM_P2
2021/04/02 00:01:24;;;;;;;26.10;14.45;;;15.20;75.60;;;;;;5076385;28;20207;-71
2021/04/02 00:03:51;;;;;;;27.10;14.52;;;15.10;76.60;;;;;;5076341;28;20207;-71
2021/04/02 00:06:18;;;;;;;27.02;15.77;;;15.20;77.30;;;;;;5076670;28;20623;-71
2021/04/02 00:08:44;;;;;;;27.10;15.25;;;15.30;77.40;;;;;;5076377;28;20236;-71
2021/04/02 00:11:12;;;;;;;26.33;15.55;;;15.40;77.70;;;;;;5075988;28;20555;-72
2021/04/02 00:13:40;;;;;;;23.90;15.32;;;15.40;77.50;;;;;;5076009;28;20741;-71
2021/04/02 00:16:07;;;;;;;25.98;17.08;;;15.40;77.50;;;;;;5076275;28;20272;-69
2021/04/02 00:18:34;;;;;;;34.25;16.98;;;15.10;78.10;;;;;;5076157;28;20612;-70
2021/04/02 00:21:05;;;;;;;27.45;15.77;;;14.90;79.60;;;;;;5075705;28;20202;-70
2021/04/02 00:23:31;;;;;;;32.65;16.95;;;14.70;80.90;;;;;;5075993;28;20297;-71
2021/04/02 00:25:58;;;;;;;30.10;16.38;;;14.70;82.00;;;;;;5075860;28;20334;-71
2021/04/02 00:28:24;;;;;;;28.92;16.17;;;14.60;82.60;;;;;;5075777;28;20241;-71
2021/04/02 00:30:52;;;;;;;25.10;15.98;;;14.50;83.70;;;;;;5075602;28;20592;-71
2021/04/02 00:33:21;;;;;;;28.42;16.25;;;14.70;84.30;;;;;;5075514;28;20732;-75
2021/04/02 00:35:48;;;;;;;26.38;15.48;;;14.80;84.20;;;;;;5075797;28;20903;-74
2021/04/02 00:38:15;;;;;;;25.73;15.20;;;14.90;84.20;;;;;;5075539;28;20199;-74
2021/04/02 00:40:45;;;;;;;30.83;17.60;;;14.90;84.30;;;;;;5075603;28;20203;-73
2021/04/02 00:43:13;;;;;;;27.58;16.80;;;14.90;84.00;;;;;;5075646;28;20209;-75
2021/04/02 00:45:40;;;;;;;27.10;16.30;;;14.90;84.60;;;;;;5075445;28;20684;-75
2021/04/02 00:48:07;;;;;;;27.63;15.65;;;14.90;84.10;;;;;;5075442;28;20225;-76
2021/04/02 00:50:38;;;;;;;33.90;18.58;;;14.80;84.70;;;;;;5075197;28;20209;-75
2021/04/02 00:53:04;;;;;;;31.73;17.23;;;14.50;85.40;;;;;;5075416;28;20203;-75
2021/04/02 00:55:32;;;;;;;29.20;18.40;;;14.30;86.80;;;;;;5075537;28;20313;-75
2021/04/02 00:57:58;;;;;;;32.25;17.95;;;13.90;89.30;;;;;;5075112;28;20294;-75
2021/04/02 01:00:25;;;;;;;32.58;18.00;;;13.80;90.50;;;;;;5075203;28;20289;-74
2021/04/02 01:02:52;;;;;;;28.27;17.08;;;13.70;91.40;;;;;;5074990;28;20607;-74
2021/04/02 01:05:21;;;;;;;34.95;17.35;;;13.70;91.30;;;;;;5075345;28;20310;-75
2021/04/02 01:07:49;;;;;;;29.75;17.25;;;13.70;91.50;;;;;;5074302;28;20218;-75
2021/04/02 01:10:17;;;;;;;32.80;18.38;;;13.70;91.80;;;;;;5074882;28;20298;-75
2021/04/02 01:12:45;;;;;;;28.90;16.05;;;13.70;92.00;;;;;;5075047;28;20252;-75
2021/04/02 01:15:14;;;;;;;26.33;15.30;;;13.70;91.70;;;;;;5075174;28;20577;-75
2021/04/02 01:17:44;;;;;;;26.52;14.60;;;13.70;91.80;;;;;;5074992;28;20203;-75
2021/04/02 01:20:11;;;;;;;26.92;15.15;;;13.50;91.70;;;;;;5074843;28;20260;-74
2021/04/02 01:22:37;;;;;;;27.52;14.43;;;13.40;92.20;;;;;;5074631;28;20204;-73
2021/04/02 01:25:24;;;;;;;27.55;13.32;;;13.30;92.40;;;;;;5073699;28;20317;-74
2021/04/02 01:28:07;;;;;;;22.95;14.48;;;13.10;92.70;;;;;;5075014;28;20218;-71
2021/04/02 01:30:37;;;;;;;23.83;13.73;;;13.20;92.80;;;;;;5076468;28;20206;-68
2021/04/02 01:33:06;;;;;;;22.48;12.48;;;13.10;92.70;;;;;;5076694;28;20226;-68
2021/04/02 01:35:36;;;;;;;19.67;11.20;;;13.10;92.90;;;;;;5076309;28;20588;-68
2021/04/02 01:38:07;;;;;;;22.45;12.32;;;13.00;93.00;;;;;;5075617;28;20209;-69
2021/04/02 01:40:36;;;;;;;21.17;11.45;;;13.00;93.00;;;;;;5075822;28;20281;-69
2021/04/02 01:43:07;;;;;;;17.60;10.90;;;13.00;92.90;;;;;;5076209;28;20289;-69
2021/04/02 01:45:34;;;;;;;18.73;11.20;;;12.90;93.20;;;;;;5075962;28;20233;-68
2021/04/02 01:48:02;;;;;;;20.10;12.15;;;12.80;93.50;;;;;;5075663;28;20227;-69
2021/04/02 01:50:30;;;;;;;21.00;11.57;;;12.80;93.80;;;;;;5075775;28;20565;-68
2021/04/02 01:52:57;;;;;;;17.08;10.95;;;12.90;93.80;;;;;;5075763;28;20293;-69
2021/04/02 01:55:24;;;;;;;18.77;11.77;;;12.80;93.70;;;;;;5075405;28;20222;-68
2021/04/02 01:57:52;;;;;;;21.40;12.05;;;12.70;94.10;;;;;;5075448;28;20289;-68
2021/04/02 02:00:23;;;;;;;18.17;11.13;;;12.60;94.50;;;;;;5076071;28;20207;-68
2021/04/02 02:02:51;;;;;;;17.48;10.43;;;12.70;94.70;;;;;;5075480;28;20612;-68
2021/04/02 02:05:19;;;;;;;17.17;10.73;;;12.60;94.50;;;;;;5075237;28;20225;-68
2021/04/02 02:07:47;;;;;;;18.73;10.70;;;12.40;94.90;;;;;;5075470;28;20219;-68
2021/04/02 02:10:15;;;;;;;20.15;11.20;;;12.30;95.40;;;;;;5075250;28;20209;-68
2021/04/02 02:12:44;;;;;;;17.73;10.00;;;12.30;95.70;;;;;;5075402;28;20206;-68
2021/04/02 02:15:12;;;;;;;14.48;9.52;;;12.20;95.90;;;;;;5074983;28;20926;-68
2021/04/02 02:17:42;;;;;;;17.40;9.70;;;12.20;96.10;;;;;;5074953;28;20614;-68
2021/04/02 02:20:10;;;;;;;17.02;9.27;;;12.20;96.20;;;;;;5074166;28;20293;-68
2021/04/02 02:22:39;;;;;;;14.40;9.57;;;12.30;96.30;;;;;;5074905;28;20632;-68
2021/04/02 02:25:06;;;;;;;16.45;8.75;;;12.40;95.70;;;;;;5074498;28;20218;-68
2021/04/02 02:27:33;;;;;;;17.50;8.50;;;12.40;95.30;;;;;;5075027;28;20775;-68
2021/04/02 02:30:00;;;;;;;16.38;8.70;;;12.20;95.70;;;;;;5074711;28;20203;-68
2021/04/02 02:32:26;;;;;;;13.32;8.77;;;12.10;96.20;;;;;;5075125;28;20202;-68
2021/04/02 02:34:53;;;;;;;15.15;7.68;;;12.00;96.20;;;;;;5074788;28;20237;-68
2021/04/02 02:37:20;;;;;;;11.05;7.50;;;12.10;96.50;;;;;;5074683;28;20273;-67
2021/04/02 02:39:47;;;;;;;13.10;7.40;;;12.00;96.60;;;;;;5075029;28;20744;-68
2021/04/02 02:42:14;;;;;;;14.98;7.53;;;11.90;96.90;;;;;;5074550;28;20205;-68
2021/04/02 02:44:43;;;;;;;11.30;7.38;;;11.80;97.00;;;;;;5074698;28;20309;-68
2021/04/02 02:47:09;;;;;;;12.98;7.97;;;11.90;97.20;;;;;;5074621;28;20298;-68
2021/04/02 02:49:37;;;;;;;14.82;8.00;;;11.90;97.10;;;;;;5074355;28;20205;-68
2021/04/02 02:52:05;;;;;;;12.30;7.50;;;11.80;97.30;;;;;;5074936;28;20644;-68
2021/04/02 02:54:33;;;;;;;12.02;7.05;;;11.90;97.40;;;;;;5074665;28;20289;-68
2021/04/02 02:57:02;;;;;;;13.57;7.78;;;12.00;97.10;;;;;;5074136;28;20222;-68
2021/04/02 02:59:30;;;;;;;11.65;6.80;;;12.20;97.00;;;;;;5074336;28;20213;-68
2021/04/02 03:01:58;;;;;;;10.00;6.97;;;12.30;96.30;;;;;;5074238;28;20297;-69
2021/04/02 03:04:27;;;;;;;10.35;6.57;;;12.20;96.30;;;;;;5074837;28;20217;-68
2021/04/02 03:06:55;;;;;;;10.77;6.40;;;12.00;96.30;;;;;;5074324;28;20233;-68
2021/04/02 03:09:23;;;;;;;9.40;5.78;;;11.80;96.40;;;;;;5074452;28;20227;-68
2021/04/02 03:11:51;;;;;;;9.45;5.55;;;11.70;96.60;;;;;;5074908;28;20198;-68
2021/04/02 03:14:19;;;;;;;8.57;5.13;;;11.60;97.10;;;;;;5075065;28;20229;-68
2021/04/02 03:16:48;;;;;;;9.73;5.95;;;11.60;97.30;;;;;;5073754;28;20272;-68
2021/04/02 03:19:18;;;;;;;9.88;6.47;;;11.50;97.40;;;;;;5074447;28;20621;-68
2021/04/02 03:21:47;;;;;;;11.63;6.13;;;11.40;97.70;;;;;;5074613;28;20203;-68
2021/04/02 03:24:15;;;;;;;12.25;5.97;;;11.40;98.00;;;;;;5073982;28;20241;-68
2021/04/02 03:26:46;;;;;;;10.57;6.30;;;11.30;98.20;;;;;;5073730;28;20697;-68
2021/04/02 03:29:14;;;;;;;9.85;6.30;;;11.20;98.50;;;;;;5074453;28;20688;-68
2021/04/02 03:31:43;;;;;;;14.70;7.10;;;11.20;99.10;;;;;;5073685;28;20198;-68
2021/04/02 03:34:12;;;;;;;14.20;7.68;;;11.30;99.20;;;;;;5074572;28;20293;-68
2021/04/02 03:36:42;;;;;;;13.50;6.35;;;11.30;98.60;;;;;;5074071;28;20227;-68
2021/04/02 03:39:12;;;;;;;11.02;7.28;;;11.30;98.60;;;;;;5074312;28;20209;-68
2021/04/02 03:41:41;;;;;;;7.95;5.40;;;11.10;98.80;;;;;;5074226;28;20206;-68
2021/04/02 03:44:10;;;;;;;10.07;6.32;;;11.20;97.40;;;;;;5073725;28;20214;-68
2021/04/02 03:46:40;;;;;;;8.23;5.60;;;11.20;97.40;;;;;;5073793;28;20219;-68
2021/04/02 03:49:14;;;;;;;7.53;6.07;;;11.20;97.10;;;;;;5074362;28;20281;-68
2021/04/02 03:51:42;;;;;;;8.38;5.30;;;11.20;96.50;;;;;;5074028;28;20377;-68
2021/04/02 03:54:11;;;;;;;8.57;5.00;;;11.00;96.90;;;;;;5074126;28;20203;-68
2021/04/02 03:56:39;;;;;;;10.32;5.93;;;11.10;96.10;;;;;;5073901;28;20219;-67
2021/04/02 03:59:06;;;;;;;8.35;4.70;;;10.90;95.60;;;;;;5074177;28;20205;-68
2021/04/02 04:01:35;;;;;;;6.97;4.82;;;10.80;95.70;;;;;;5073254;28;20241;-68
2021/04/02 04:04:02;;;;;;;7.32;4.70;;;10.60;96.10;;;;;;5073964;28;20604;-68
2021/04/02 04:06:32;;;;;;;10.65;4.53;;;10.40;96.60;;;;;;5073672;28;20222;-67
2021/04/02 04:09:02;;;;;;;11.40;5.00;;;10.40;97.00;;;;;;5073821;28;20227;-68
2021/04/02 04:11:31;;;;;;;7.43;4.60;;;10.50;96.90;;;;;;5073889;28;20683;-68
2021/04/02 04:14:00;;;;;;;7.72;5.10;;;10.40;96.60;;;;;;5073481;28;20203;-68
2021/04/02 04:16:28;;;;;;;11.32;4.97;;;10.30;96.40;;;;;;5073378;28;20245;-68
2021/04/02 04:18:57;;;;;;;8.20;4.55;;;10.30;96.40;;;;;;5073599;28;20230;-68
2021/04/02 04:21:27;;;;;;;7.47;4.22;;;10.20;95.70;;;;;;5073442;28;20198;-67
2021/04/02 04:23:55;;;;;;;4.50;3.03;;;10.20;95.40;;;;;;5073720;28;20203;-68
2021/04/02 04:26:22;;;;;;;3.72;3.00;;;10.10;94.10;;;;;;5073709;28;20226;-68
2021/04/02 04:28:51;;;;;;;3.47;3.00;;;10.00;94.10;;;;;;5073340;28;20230;-68
2021/04/02 04:31:18;;;;;;;5.90;3.65;;;10.10;94.10;;;;;;5073141;28;20203;-68
2021/04/02 04:33:47;;;;;;;5.10;3.45;;;10.20;93.80;;;;;;5073129;28;20294;-68
2021/04/02 04:36:15;;;;;;;4.40;3.08;;;10.10;93.40;;;;;;5073197;28;20326;-67
2021/04/02 04:38:42;;;;;;;8.38;4.18;;;9.90;94.50;;;;;;5073415;28;20198;-68
2021/04/02 04:41:10;;;;;;;6.68;4.47;;;9.70;94.80;;;;;;5073275;28;20645;-68
2021/04/02 04:43:37;;;;;;;8.07;3.75;;;9.70;94.90;;;;;;5075781;28;20213;-69
2021/04/02 04:46:04;;;;;;;5.05;3.50;;;9.80;95.60;;;;;;5077030;28;20226;-68
2021/04/02 04:48:30;;;;;;;5.78;3.97;;;9.90;94.50;;;;;;5077014;28;20218;-68
2021/04/02 04:50:57;;;;;;;7.18;3.30;;;9.90;93.80;;;;;;5077149;28;20544;-68
2021/04/02 04:53:28;;;;;;;8.48;3.30;;;9.90;94.10;;;;;;5077126;28;20203;-68
2021/04/02 04:55:57;;;;;;;3.35;2.88;;;9.80;92.90;;;;;;5076751;28;20226;-67
2021/04/02 04:58:29;;;;;;;3.28;2.97;;;9.60;92.60;;;;;;5076335;28;20202;-68
2021/04/02 05:00:57;;;;;;;6.43;3.45;;;9.40;92.40;;;;;;5076847;28;20606;-67
2021/04/02 05:03:27;;;;;;;5.10;2.78;;;9.20;93.00;;;;;;5076401;28;20223;-68
2021/04/02 05:05:56;;;;;;;4.10;2.63;;;9.30;93.10;;;;;;5076414;28;20233;-68
2021/04/02 05:08:27;;;;;;;5.63;2.63;;;9.40;92.60;;;;;;5076162;28;20207;-68
2021/04/02 05:10:56;;;;;;;4.78;3.25;;;9.40;92.80;;;;;;5076791;28;20203;-68
2021/04/02 05:13:27;;;;;;;6.72;2.90;;;9.30;92.50;;;;;;5076200;28;20206;-68
2021/04/02 05:15:55;;;;;;;3.90;2.78;;;9.10;92.60;;;;;;5076097;28;20227;-67
2021/04/02 05:18:23;;;;;;;4.25;2.70;;;9.20;93.00;;;;;;5076009;28;20237;-68
2021/04/02 05:20:50;;;;;;;9.40;2.80;;;9.20;92.90;;;;;;5076479;28;20206;-67
2021/04/02 05:23:18;;;;;;;4.25;2.10;;;9.20;93.00;;;;;;5076398;28;20260;-68
2021/04/02 05:25:44;;;;;;;6.38;2.80;;;9.10;92.60;;;;;;5075921;28;20784;-68
2021/04/02 05:28:10;;;;;;;4.05;2.78;;;8.90;92.80;;;;;;5076343;28;20198;-68
2021/04/02 05:30:38;;;;;;;4.47;3.08;;;8.80;93.20;;;;;;5076804;28;20323;-68
2021/04/02 05:33:05;;;;;;;2.53;1.98;;;8.80;94.00;;;;;;5076070;28;20199;-68
2021/04/02 05:35:32;;;;;;;5.38;2.85;;;8.80;93.70;;;;;;5076174;28;20331;-68
2021/04/02 05:37:59;;;;;;;5.60;3.05;;;8.90;93.80;;;;;;5076147;28;20222;-67
2021/04/02 05:40:25;;;;;;;3.13;2.70;;;9.00;93.80;;;;;;5076313;28;20554;-68
2021/04/02 05:42:59;;;;;;;2.78;2.58;;;9.20;93.10;;;;;;5075921;28;20714;-68
2021/04/02 05:45:29;;;;;;;3.90;2.60;;;9.10;93.00;;;;;;5075676;28;20739;-68
2021/04/02 05:48:00;;;;;;;4.15;2.42;;;9.20;93.00;;;;;;5075812;28;20247;-68
2021/04/02 05:50:29;;;;;;;5.35;2.83;;;9.30;92.90;;;;;;5075862;28;20202;-67
2021/04/02 05:53:01;;;;;;;5.38;3.17;;;9.20;92.90;;;;;;5075700;28;20209;-67
2021/04/02 05:55:28;;;;;;;5.35;3.40;;;9.30;93.20;;;;;;5075500;28;20305;-67
2021/04/02 05:57:55;;;;;;;4.35;3.13;;;9.10;93.10;;;;;;5075223;28;20272;-67
2021/04/02 06:00:23;;;;;;;6.75;3.50;;;9.00;93.60;;;;;;5075192;28;20203;-67
2021/04/02 06:02:50;;;;;;;3.60;2.60;;;8.90;94.00;;;;;;5075244;28;20209;-67
2021/04/02 06:05:17;;;;;;;8.60;3.03;;;8.80;94.70;;;;;;5075869;28;20629;-67
2021/04/02 06:07:44;;;;;;;4.85;3.20;;;8.90;95.00;;;;;;5075413;28;20336;-67
2021/04/02 06:10:12;;;;;;;10.00;3.15;;;9.00;94.90;;;;;;5074984;28;20207;-67
2021/04/02 06:12:41;;;;;;;6.18;3.28;;;9.00;94.20;;;;;;5074872;28;20289;-67
2021/04/02 06:15:09;;;;;;;6.72;3.97;;;9.00;94.00;;;;;;5074993;28;20222;-67
2021/04/02 06:17:58;;;;;;;5.50;3.33;;;9.00;94.20;;;;;;5074753;28;20209;-67
2021/04/02 06:20:26;;;;;;;5.90;3.90;;;9.00;94.60;;;;;;5075460;28;20199;-67
2021/04/02 06:23:08;;;;;;;7.40;3.65;;;8.90;94.40;;;;;;5074849;28;20202;-67
2021/04/02 06:25:35;;;;;;;5.00;4.00;;;9.00;94.70;;;;;;5074795;28;20237;-67
2021/04/02 06:28:09;;;;;;;6.47;3.90;;;9.20;94.50;;;;;;5074870;28;20233;-67
2021/04/02 06:30:38;;;;;;;5.40;3.70;;;9.30;94.30;;;;;;5075116;28;20637;-67
2021/04/02 06:33:06;;;;;;;6.80;3.80;;;9.30;94.10;;;;;;5075040;28;20203;-67
2021/04/02 06:35:35;;;;;;;8.20;4.68;;;9.10;93.80;;;;;;5074524;28;20234;-67
2021/04/02 06:38:02;;;;;;;8.15;4.68;;;9.10;94.10;;;;;;5074498;28;20223;-67
2021/04/02 06:40:31;;;;;;;6.00;4.18;;;9.10;94.20;;;;;;5074783;28;20293;-68
2021/04/02 06:42:59;;;;;;;6.97;4.05;;;9.20;94.30;;;;;;5074820;28;20261;-67
2021/04/02 06:45:27;;;;;;;8.00;4.03;;;9.30;94.20;;;;;;5074058;28;20239;-67
2021/04/02 06:47:53;;;;;;;6.18;4.00;;;9.40;93.80;;;;;;5074140;28;20664;-67
2021/04/02 06:50:21;;;;;;;7.55;4.10;;;9.60;93.70;;;;;;5074526;28;20198;-67
2021/04/02 06:52:52;;;;;;;5.90;4.10;;;9.50;93.00;;;;;;5074255;28;20234;-67
2021/04/02 06:55:19;;;;;;;7.85;4.80;;;9.40;93.60;;;;;;5074733;28;20305;-67
2021/04/02 06:57:47;;;;;;;7.50;4.45;;;9.30;93.60;;;;;;5073695;28;20265;-67
2021/04/02 07:00:19;;;;;;;7.30;4.10;;;9.20;93.70;;;;;;5074183;28;20633;-68
2021/04/02 07:02:46;;;;;;;7.93;4.20;;;9.00;94.30;;;;;;5074289;28;20610;-67
2021/04/02 07:05:16;;;;;;;6.25;4.30;;;8.90;95.20;;;;;;5073642;28;20226;-68
2021/04/02 07:07:43;;;;;;;5.65;3.45;;;8.90;94.70;;;;;;5074343;28;20210;-68
2021/04/02 07:10:12;;;;;;;8.50;4.15;;;8.90;95.00;;;;;;5074230;28;20656;-68
2021/04/02 07:12:43;;;;;;;7.00;4.70;;;9.10;95.10;;;;;;5074047;28;20285;-67
2021/04/02 07:15:10;;;;;;;9.73;5.10;;;9.10;95.00;;;;;;5073884;28;20229;-68
2021/04/02 07:17:38;;;;;;;8.85;4.32;;;9.10;94.70;;;;;;5073797;28;20202;-68
2021/04/02 07:20:06;;;;;;;6.22;4.38;;;9.10;94.90;;;;;;5073912;28;20714;-67
2021/04/02 07:22:33;;;;;;;6.97;4.10;;;9.20;94.80;;;;;;5074156;28;20297;-67
2021/04/02 07:25:00;;;;;;;9.20;4.88;;;9.40;94.50;;;;;;5073441;28;20203;-67
2021/04/02 07:27:27;;;;;;;6.47;4.40;;;9.20;94.40;;;;;;5073690;28;20205;-67
2021/04/02 07:29:55;;;;;;;8.80;4.82;;;9.30;94.50;;;;;;5073917;28;20281;-67
2021/04/02 07:32:24;;;;;;;7.25;4.57;;;9.30;94.30;;;;;;5073944;28;20203;-67
2021/04/02 07:34:52;;;;;;;8.55;4.70;;;9.30;94.90;;;;;;5073901;28;20209;-68
2021/04/02 07:37:18;;;;;;;6.30;4.95;;;9.30;94.80;;;;;;5073608;28;20210;-67
2021/04/02 07:39:52;;;;;;;8.70;5.20;;;9.10;94.60;;;;;;5073941;28;20219;-67
2021/04/02 07:42:20;;;;;;;8.05;5.30;;;9.00;95.20;;;;;;5073537;28;20586;-67
2021/04/02 07:44:53;;;;;;;9.70;5.40;;;8.90;95.80;;;;;;5073270;28;20210;-68
2021/04/02 07:47:21;;;;;;;10.07;5.32;;;9.20;95.70;;;;;;5073820;28;20241;-67
2021/04/02 07:49:58;;;;;;;9.65;5.50;;;9.50;95.30;;;;;;5073570;28;20198;-67
2021/04/02 07:52:42;;;;;;;9.00;5.38;;;9.30;94.80;;;;;;5073667;28;20191;-67
2021/04/02 07:55:16;;;;;;;11.63;6.50;;;9.40;94.90;;;;;;5073580;28;20222;-69
2021/04/02 07:57:52;;;;;;;9.27;5.28;;;9.30;95.00;;;;;;5073455;28;20191;-69
2021/04/02 08:00:23;;;;;;;12.32;6.35;;;9.20;95.20;;;;;;5073937;28;20241;-69
2021/04/02 08:03:06;;;;;;;9.63;5.30;;;9.30;95.80;;;;;;5074286;28;20233;-69
2021/04/02 08:05:33;;;;;;;8.40;5.25;;;9.60;95.10;;;;;;5073419;28;20226;-69
2021/04/02 08:07:59;;;;;;;8.43;5.78;;;9.80;94.80;;;;;;5073447;28;20248;-68
2021/04/02 08:10:26;;;;;;;6.63;5.43;;;9.60;94.40;;;;;;5073696;28;20332;-69
2021/04/02 08:12:52;;;;;;;9.57;5.85;;;9.60;95.20;;;;;;5073721;28;20617;-68
2021/04/02 08:15:22;;;;;;;8.90;5.80;;;9.70;94.50;;;;;;5073256;28;20226;-69
2021/04/02 08:17:49;;;;;;;9.48;5.80;;;9.80;94.90;;;;;;5074846;28;20278;-68
2021/04/02 08:20:17;;;;;;;9.73;5.85;;;9.90;94.70;;;;;;5077068;28;20209;-69
2021/04/02 08:22:45;;;;;;;11.73;6.30;;;10.00;93.50;;;;;;5077534;28;20225;-69
2021/04/02 08:25:17;;;;;;;10.50;6.70;;;10.20;93.30;;;;;;5076902;28;20253;-68
2021/04/02 08:27:45;;;;;;;10.85;6.30;;;10.20;93.10;;;;;;5077004;28;20329;-68
2021/04/02 08:30:14;;;;;;;14.40;6.50;;;10.20;92.80;;;;;;5077144;28;20649;-68
2021/04/02 08:32:43;;;;;;;11.77;6.30;;;10.20;93.20;;;;;;5077216;28;20203;-69
2021/04/02 08:35:18;;;;;;;8.57;6.13;;;10.40;93.20;;;;;;5076832;28;20249;-68
2021/04/02 08:37:57;;;;;;;13.43;7.25;;;10.60;92.90;;;;;;5077250;28;20210;-68
2021/04/02 08:40:23;;;;;;;11.52;6.63;;;10.30;92.70;;;;;;5077396;28;20206;-68
2021/04/02 08:42:50;;;;;;;11.57;6.60;;;10.30;93.40;;;;;;5076549;28;20208;-69
2021/04/02 08:45:20;;;;;;;15.38;6.75;;;10.30;93.40;;;;;;5076344;28;20241;-69
2021/04/02 08:47:48;;;;;;;9.85;6.13;;;10.30;92.90;;;;;;5076718;28;20203;-68
2021/04/02 08:50:15;;;;;;;8.77;6.30;;;10.50;93.00;;;;;;5076669;28;20301;-68
2021/04/02 08:52:43;;;;;;;9.63;6.07;;;10.60;92.90;;;;;;5077077;28;20293;-69
2021/04/02 08:55:10;;;;;;;10.07;6.32;;;10.70;92.60;;;;;;5076264;28;20309;-68
2021/04/02 08:57:37;;;;;;;16.23;7.00;;;11.00;92.90;;;;;;5076091;28;20203;-69
2021/04/02 09:00:07;;;;;;;10.35;6.60;;;11.20;92.00;;;;;;5076652;28;20199;-69
2021/04/02 09:02:36;;;;;;;9.65;6.10;;;11.10;91.40;;;;;;5076535;28;20294;-69
2021/04/02 09:05:06;;;;;;;12.23;7.47;;;11.20;91.50;;;;;;5076628;28;20209;-68
2021/04/02 09:07:36;;;;;;;10.32;6.03;;;11.10;91.00;;;;;;5076182;28;20614;-68
2021/04/02 09:10:09;;;;;;;9.50;6.40;;;11.00;92.00;;;;;;5076519;28;20560;-69
2021/04/02 09:12:36;;;;;;;12.65;7.75;;;11.30;91.70;;;;;;5076515;28;20584;-68
2021/04/02 09:15:02;;;;;;;9.95;6.30;;;11.50;91.30;;;;;;5076192;28;20209;-69
2021/04/02 09:17:29;;;;;;;13.20;6.88;;;11.60;90.70;;;;;;5076242;28;20611;-68
2021/04/02 09:19:56;;;;;;;11.80;6.35;;;12.10;90.90;;;;;;5076165;28;20222;-69
2021/04/02 09:22:23;;;;;;;9.65;6.75;;;12.40;89.80;;;;;;5076159;28;20285;-69
2021/04/02 09:24:50;;;;;;;12.05;7.00;;;12.60;88.10;;;;;;5075957;28;20854;-69
2021/04/02 09:27:18;;;;;;;11.05;6.55;;;12.60;86.60;;;;;;5076057;28;20224;-69
2021/04/02 09:29:47;;;;;;;10.10;6.75;;;12.90;86.30;;;;;;5075589;28;20195;-69
2021/04/02 09:32:22;;;;;;;10.32;7.28;;;12.80;84.80;;;;;;5075871;28;20566;-69
2021/04/02 09:34:49;;;;;;;13.55;7.70;;;12.90;84.60;;;;;;5075924;28;20203;-69
2021/04/02 09:37:16;;;;;;;9.80;6.63;;;12.70;84.80;;;;;;5075595;28;20243;-68
2021/04/02 09:39:44;;;;;;;11.98;7.20;;;12.20;85.70;;;;;;5075709;28;20637;-69
2021/04/02 09:42:15;;;;;;;10.32;6.95;;;11.90;89.30;;;;;;5075877;28;20227;-68
2021/04/02 09:44:47;;;;;;;11.48;7.45;;;11.60;89.50;;;;;;5075316;28;20309;-69
2021/04/02 09:47:13;;;;;;;11.07;6.72;;;11.50;89.90;;;;;;5075502;28;20191;-68
2021/04/02 09:49:42;;;;;;;10.98;7.05;;;12.10;89.70;;;;;;5075668;28;20251;-68
2021/04/02 09:52:09;;;;;;;13.18;6.30;;;12.20;87.00;;;;;;5075734;28;20232;-69
2021/04/02 09:54:37;;;;;;;9.85;6.30;;;12.50;87.20;;;;;;5075086;28;20669;-69
2021/04/02 09:57:06;;;;;;;9.88;6.72;;;12.60;85.10;;;;;;5075185;28;20310;-68
2021/04/02 09:59:33;;;;;;;11.63;6.88;;;12.30;85.20;;;;;;5075734;28;20310;-69
2021/04/02 10:01:59;;;;;;;10.45;6.97;;;12.10;85.70;;;;;;5075064;28;20682;-69
2021/04/02 10:04:26;;;;;;;10.30;6.53;;;12.80;86.20;;;;;;5075218;28;20214;-69
2021/04/02 10:06:53;;;;;;;9.02;5.97;;;13.20;81.90;;;;;;5075158;28;20309;-69
2021/04/02 10:09:20;;;;;;;10.43;6.90;;;13.00;81.10;;;;;;5075142;28;20272;-69
2021/04/02 10:11:49;;;;;;;9.32;6.63;;;14.30;79.40;;;;;;5075359;28;20241;-69
2021/04/02 10:14:18;;;;;;;8.15;5.80;;;15.80;74.10;;;;;;5074756;28;20668;-69
2021/04/02 10:16:45;;;;;;;9.13;6.60;;;17.50;69.20;;;;;;5074806;28;20313;-69
2021/04/02 10:19:12;;;;;;;9.00;5.78;;;18.40;62.90;;;;;;5074695;28;20229;-69
2021/04/02 10:21:38;;;;;;;11.90;6.72;;;19.60;57.50;;;;;;5075241;28;20230;-70
2021/04/02 10:24:06;;;;;;;8.27;6.30;;;19.40;55.30;;;;;;5075174;28;20203;-69
2021/04/02 10:26:32;;;;;;;7.10;5.75;;;18.60;53.50;;;;;;5074266;28;20236;-69
2021/04/02 10:28:59;;;;;;;9.40;6.35;;;19.10;55.20;;;;;;5074529;28;20300;-69
2021/04/02 10:31:26;;;;;;;8.82;6.65;;;18.50;54.20;;;;;;5074449;28;20297;-70
2021/04/02 10:33:52;;;;;;;8.13;6.43;;;18.90;56.10;;;;;;5074544;28;20299;-69
2021/04/02 10:36:19;;;;;;;9.50;6.85;;;19.70;53.40;;;;;;5074696;28;20284;-69
2021/04/02 10:38:45;;;;;;;7.55;5.65;;;19.30;52.50;;;;;;5074874;28;20241;-70
2021/04/02 10:41:11;;;;;;;6.15;5.53;;;18.80;53.80;;;;;;5074244;28;20210;-69
2021/04/02 10:43:38;;;;;;;8.32;6.30;;;18.10;54.00;;;;;;5074414;28;20289;-69
2021/04/02 10:46:04;;;;;;;9.73;6.47;;;17.90;54.60;;;;;;5074403;28;20232;-69
2021/04/02 10:48:32;;;;;;;8.93;6.75;;;16.90;54.80;;;;;;5074630;28;20312;-69
2021/04/02 10:50:58;;;;;;;10.75;6.35;;;16.20;56.60;;;;;;5074154;28;20576;-69
2021/04/02 10:53:26;;;;;;;8.60;6.00;;;16.60;58.00;;;;;;5074366;28;20209;-69
2021/04/02 10:55:53;;;;;;;9.27;6.40;;;17.30;57.70;;;;;;5076020;28;20223;-69
2021/04/02 10:58:20;;;;;;;9.60;6.80;;;16.60;57.10;;;;;;5073086;28;20331;-70
2021/04/02 11:00:46;;;;;;;8.90;6.30;;;16.00;57.80;;;;;;5073251;28;20205;-69
2021/04/02 11:03:12;;;;;;;15.52;7.47;;;16.50;58.50;;;;;;5072837;28;20204;-69
2021/04/02 11:05:39;;;;;;;9.60;5.95;;;16.00;56.70;;;;;;5072734;28;20225;-69
2021/04/02 11:08:06;;;;;;;8.07;6.22;;;16.70;57.90;;;;;;5072493;28;20661;-70
2021/04/02 11:10:33;;;;;;;8.15;5.90;;;17.10;55.10;;;;;;5072406;28;20227;-69
2021/04/02 11:12:59;;;;;;;6.90;5.88;;;16.50;55.90;;;;;;5071688;28;20683;-69
2021/04/02 11:15:26;;;;;;;9.13;6.60;;;16.00;57.50;;;;;;5072582;28;20312;-70
2021/04/02 11:17:52;;;;;;;9.52;6.25;;;16.70;57.30;;;;;;5072266;28;20211;-69
2021/04/02 11:20:20;;;;;;;8.73;5.80;;;17.60;54.90;;;;;;5072441;28;20752;-70
2021/04/02 11:22:48;;;;;;;8.10;5.38;;;18.60;52.40;;;;;;5072544;28;20685;-70
2021/04/02 11:25:16;;;;;;;10.97;6.30;;;18.70;52.30;;;;;;5072817;28;20233;-70
2021/04/02 11:27:42;;;;;;;6.13;5.20;;;20.20;51.00;;;;;;5072255;28;20478;-74
2021/04/02 11:30:11;;;;;;;8.07;6.33;;;22.20;48.10;;;;;;5072333;28;20445;-73
2021/04/02 11:32:37;;;;;;;7.37;6.00;;;22.80;44.10;;;;;;5072579;28;20451;-73
2021/04/02 11:35:04;;;;;;;7.70;5.40;;;22.70;42.20;;;;;;5072453;28;20451;-74
2021/04/02 11:37:31;;;;;;;7.30;5.78;;;20.40;45.60;;;;;;5071946;28;20497;-73
2021/04/02 11:39:58;;;;;;;7.20;5.60;;;18.80;47.80;;;;;;5072425;28;20317;-74
2021/04/02 11:42:24;;;;;;;8.07;5.35;;;18.10;51.30;;;;;;5072231;28;20252;-73
2021/04/02 11:44:51;;;;;;;9.32;6.03;;;18.50;49.70;;;;;;5072431;28;20316;-72
2021/04/02 11:47:17;;;;;;;7.78;5.10;;;17.80;52.20;;;;;;5072245;28;20306;-72
2021/04/02 11:49:43;;;;;;;8.10;6.00;;;18.40;50.90;;;;;;5072146;28;20285;-73
2021/04/02 11:52:09;;;;;;;7.40;5.22;;;17.90;49.20;;;;;;5076071;28;20202;-72
2021/04/02 11:54:36;;;;;;;6.10;5.50;;;17.80;50.80;;;;;;5078781;28;20649;-73
2021/04/02 11:57:04;;;;;;;5.95;5.15;;;17.70;50.50;;;;;;5078808;28;20246;-72
2021/04/02 11:59:31;;;;;;;7.63;4.95;;;17.70;51.30;;;;;;5078913;28;20253;-73
2021/04/02 12:01:57;;;;;;;7.35;5.43;;;17.10;51.70;;;;;;5078926;28;20202;-73
2021/04/02 12:04:24;;;;;;;5.32;4.78;;;16.90;52.40;;;;;;5078773;28;20288;-72
2021/04/02 12:06:55;;;;;;;5.80;4.68;;;16.70;53.10;;;;;;5078641;28;20278;-74
2021/04/02 12:09:21;;;;;;;6.68;5.57;;;16.30;53.50;;;;;;5078805;28;20203;-73
2021/04/02 12:11:47;;;;;;;6.72;5.15;;;15.70;54.40;;;;;;5079012;28;20242;-72
2021/04/02 12:14:15;;;;;;;6.43;4.15;;;15.70;55.60;;;;;;5078685;28;20204;-73
2021/04/02 12:16:41;;;;;;;6.25;4.82;;;15.90;55.70;;;;;;5078893;28;20644;-72
2021/04/02 12:19:08;;;;;;;7.25;5.40;;;15.60;56.40;;;;;;5078493;28;20223;-73
2021/04/02 12:21:34;;;;;;;6.45;4.72;;;15.70;56.80;;;;;;5078692;28;20297;-74
2021/04/02 12:24:03;;;;;;;6.40;4.82;;;16.00;55.70;;;;;;5078667;28;20685;-74
2021/04/02 12:26:30;;;;;;;5.32;4.25;;;16.10;55.60;;;;;;5078209;28;20755;-73
2021/04/02 12:28:56;;;;;;;6.60;4.55;;;16.20;54.70;;;;;;5078675;28;20289;-74
2021/04/02 12:31:24;;;;;;;4.88;4.25;;;16.00;53.80;;;;;;5078555;28;20245;-73
2021/04/02 12:33:50;;;;;;;5.63;4.38;;;15.60;53.50;;;;;;5078693;28;20252;-73
2021/04/02 12:36:16;;;;;;;5.75;4.30;;;15.70;55.10;;;;;;5078263;28;20230;-73
2021/04/02 12:38:43;;;;;;;6.28;4.63;;;15.90;54.70;;;;;;5078221;28;20315;-73
2021/04/02 12:41:09;;;;;;;5.68;4.35;;;16.10;54.10;;;;;;5078280;28;20238;-73
2021/04/02 12:43:35;;;;;;;5.88;4.47;;;16.30;53.90;;;;;;5078037;28;20208;-74
2021/04/02 12:46:02;;;;;;;5.97;4.80;;;16.30;53.60;;;;;;5077981;28;20327;-73
2021/04/02 12:48:29;;;;;;;6.07;4.78;;;16.00;53.30;;;;;;5078136;28;20647;-72